sensor_id;sensor_type;location;lat;lon;timestamp;P1;durP1;ratioP1;P2;durP2;ratioP2
66429;SDS011;53242;51.694;10.006;2023-04-24T00:01:40;1.50;;;0.70;;
66429;SDS011;53242;51.694;10.006;2023-04-24T00:04:05;2.67;;;1.17;;
66429;SDS011;53242;51.694;10.006;2023-04-24T00:08:59;1.35;;;0.57;;
66429;SDS011;53242;51.694;10.006;2023-04-24T00:11:22;1.60;;;0.90;;
66429;SDS011;53242;51.694;10.006;2023-04-24T00:13:45;3.08;;;0.90;;
66429;SDS011;53242;51.694;10.006;2023-04-24T00:16:07;1.90;;;0.93;;
66429;SDS011;53242;51.694;10.006;2023-04-24T00:18:30;1.75;;;0.93;;
66429;SDS011;53242;51.694;10.006;2023-04-24T00:20:52;1.45;;;0.90;;
66429;SDS011;53242;51.694;10.006;2023-04-24T00:23:14;1.27;;;0.90;;
66429;SDS011;53242;51.694;10.006;2023-04-24T00:25:37;1.38;;;0.68;;
66429;SDS011;53242;51.694;10.006;2023-04-24T00:27:59;2.10;;;0.95;;
66429;SDS011;53242;51.694;10.006;2023-04-24T00:30:22;2.45;;;0.98;;
66429;SDS011;53242;51.694;10.006;2023-04-24T00:32:44;1.38;;;0.70;;
66429;SDS011;53242;51.694;10.006;2023-04-24T00:35:07;2.25;;;1.20;;
66429;SDS011;53242;51.694;10.006;2023-04-24T00:37:29;2.70;;;1.10;;
66429;SDS011;53242;51.694;10.006;2023-04-24T00:39:52;3.33;;;1.15;;
66429;SDS011;53242;51.694;10.006;2023-04-24T00:42:14;1.70;;;0.82;;
66429;SDS011;53242;51.694;10.006;2023-04-24T00:44:37;1.50;;;0.88;;
66429;SDS011;53242;51.694;10.006;2023-04-24T00:46:59;1.67;;;0.80;;
66429;SDS011;53242;51.694;10.006;2023-04-24T00:49:22;1.02;;;0.70;;
66429;SDS011;53242;51.694;10.006;2023-04-24T00:51:46;1.73;;;0.70;;
66429;SDS011;53242;51.694;10.006;2023-04-24T00:54:09;1.83;;;1.05;;
66429;SDS011;53242;51.694;10.006;2023-04-24T00:56:31;2.83;;;0.80;;
66429;SDS011;53242;51.694;10.006;2023-04-24T00:58:54;2.50;;;0.90;;
66429;SDS011;53242;51.694;10.006;2023-04-24T01:01:18;1.20;;;0.70;;
66429;SDS011;53242;51.694;10.006;2023-04-24T01:03:42;1.83;;;1.08;;
66429;SDS011;53242;51.694;10.006;2023-04-24T01:06:05;1.77;;;1.00;;
66429;SDS011;53242;51.694;10.006;2023-04-24T01:08:28;2.45;;;0.90;;
66429;SDS011;53242;51.694;10.006;2023-04-24T01:10:52;3.75;;;1.08;;
66429;SDS011;53242;51.694;10.006;2023-04-24T01:13:15;1.48;;;0.68;;
66429;SDS011;53242;51.694;10.006;2023-04-24T01:15:40;1.85;;;0.80;;
66429;SDS011;53242;51.694;10.006;2023-04-24T01:18:03;1.02;;;0.65;;
66429;SDS011;53242;51.694;10.006;2023-04-24T01:20:26;0.85;;;0.60;;
66429;SDS011;53242;51.694;10.006;2023-04-24T01:22:49;2.05;;;0.82;;
66429;SDS011;53242;51.694;10.006;2023-04-24T01:25:11;1.17;;;0.82;;
66429;SDS011;53242;51.694;10.006;2023-04-24T01:27:34;1.13;;;0.60;;
66429;SDS011;53242;51.694;10.006;2023-04-24T01:29:56;1.88;;;0.68;;
66429;SDS011;53242;51.694;10.006;2023-04-24T01:32:19;2.15;;;0.90;;
66429;SDS011;53242;51.694;10.006;2023-04-24T01:34:42;1.95;;;0.70;;
66429;SDS011;53242;51.694;10.006;2023-04-24T01:37:05;2.10;;;1.02;;
66429;SDS011;53242;51.694;10.006;2023-04-24T01:39:28;2.50;;;0.88;;
66429;SDS011;53242;51.694;10.006;2023-04-24T01:41:50;1.27;;;0.60;;
66429;SDS011;53242;51.694;10.006;2023-04-24T01:44:16;1.45;;;0.75;;
66429;SDS011;53242;51.694;10.006;2023-04-24T01:46:39;2.42;;;0.70;;
66429;SDS011;53242;51.694;10.006;2023-04-24T01:49:01;6.55;;;0.73;;
66429;SDS011;53242;51.694;10.006;2023-04-24T01:51:24;1.58;;;0.80;;
66429;SDS011;53242;51.694;10.006;2023-04-24T01:53:46;2.15;;;0.80;;
66429;SDS011;53242;51.694;10.006;2023-04-24T01:56:09;2.08;;;0.70;;
66429;SDS011;53242;51.694;10.006;2023-04-24T01:58:31;1.95;;;0.90;;
66429;SDS011;53242;51.694;10.006;2023-04-24T02:00:56;3.40;;;0.70;;
66429;SDS011;53242;51.694;10.006;2023-04-24T02:05:43;1.27;;;0.77;;
66429;SDS011;53242;51.694;10.006;2023-04-24T02:08:06;1.02;;;0.70;;
66429;SDS011;53242;51.694;10.006;2023-04-24T02:10:28;2.47;;;0.90;;
66429;SDS011;53242;51.694;10.006;2023-04-24T02:12:51;3.35;;;0.80;;
66429;SDS011;53242;51.694;10.006;2023-04-24T02:15:13;1.33;;;0.93;;
66429;SDS011;53242;51.694;10.006;2023-04-24T02:17:35;1.00;;;0.70;;
66429;SDS011;53242;51.694;10.006;2023-04-24T02:19:59;1.77;;;0.80;;
66429;SDS011;53242;51.694;10.006;2023-04-24T02:22:22;2.40;;;0.93;;
66429;SDS011;53242;51.694;10.006;2023-04-24T02:24:44;2.47;;;0.90;;
66429;SDS011;53242;51.694;10.006;2023-04-24T02:27:10;3.13;;;0.60;;
66429;SDS011;53242;51.694;10.006;2023-04-24T02:29:33;2.28;;;0.80;;
66429;SDS011;53242;51.694;10.006;2023-04-24T02:31:56;1.30;;;0.77;;
66429;SDS011;53242;51.694;10.006;2023-04-24T02:34:18;1.80;;;0.77;;
66429;SDS011;53242;51.694;10.006;2023-04-24T02:36:41;1.70;;;0.95;;
66429;SDS011;53242;51.694;10.006;2023-04-24T02:39:04;2.20;;;1.00;;
66429;SDS011;53242;51.694;10.006;2023-04-24T02:41:28;0.95;;;0.68;;
66429;SDS011;53242;51.694;10.006;2023-04-24T02:43:53;2.00;;;0.80;;
66429;SDS011;53242;51.694;10.006;2023-04-24T02:46:16;2.38;;;0.80;;
66429;SDS011;53242;51.694;10.006;2023-04-24T02:48:40;1.38;;;0.68;;
66429;SDS011;53242;51.694;10.006;2023-04-24T02:51:03;3.67;;;1.00;;
66429;SDS011;53242;51.694;10.006;2023-04-24T02:53:25;2.42;;;0.73;;
66429;SDS011;53242;51.694;10.006;2023-04-24T02:55:48;1.92;;;0.70;;
66429;SDS011;53242;51.694;10.006;2023-04-24T02:58:10;1.85;;;0.70;;
66429;SDS011;53242;51.694;10.006;2023-04-24T03:00:34;1.45;;;0.60;;
66429;SDS011;53242;51.694;10.006;2023-04-24T03:02:57;3.47;;;0.73;;
66429;SDS011;53242;51.694;10.006;2023-04-24T03:05:19;1.33;;;1.00;;
66429;SDS011;53242;51.694;10.006;2023-04-24T03:07:41;3.05;;;1.33;;
66429;SDS011;53242;51.694;10.006;2023-04-24T03:10:04;1.38;;;0.70;;
66429;SDS011;53242;51.694;10.006;2023-04-24T03:12:27;0.80;;;0.57;;
66429;SDS011;53242;51.694;10.006;2023-04-24T03:14:51;2.55;;;0.68;;
66429;SDS011;53242;51.694;10.006;2023-04-24T03:17:15;1.98;;;0.60;;
66429;SDS011;53242;51.694;10.006;2023-04-24T03:19:37;1.38;;;0.65;;
66429;SDS011;53242;51.694;10.006;2023-04-24T03:22:05;1.52;;;0.70;;
66429;SDS011;53242;51.694;10.006;2023-04-24T03:24:28;0.82;;;0.63;;
66429;SDS011;53242;51.694;10.006;2023-04-24T03:26:51;1.88;;;0.60;;
66429;SDS011;53242;51.694;10.006;2023-04-24T03:29:30;1.70;;;0.60;;
66429;SDS011;53242;51.694;10.006;2023-04-24T03:31:53;2.83;;;0.75;;
66429;SDS011;53242;51.694;10.006;2023-04-24T03:34:16;1.77;;;0.90;;
66429;SDS011;53242;51.694;10.006;2023-04-24T03:36:39;1.77;;;0.77;;
66429;SDS011;53242;51.694;10.006;2023-04-24T03:39:03;2.42;;;0.90;;
66429;SDS011;53242;51.694;10.006;2023-04-24T03:41:28;2.17;;;0.77;;
66429;SDS011;53242;51.694;10.006;2023-04-24T03:44:04;2.35;;;0.95;;
66429;SDS011;53242;51.694;10.006;2023-04-24T03:46:27;1.17;;;0.82;;
66429;SDS011;53242;51.694;10.006;2023-04-24T03:48:53;1.85;;;0.93;;
66429;SDS011;53242;51.694;10.006;2023-04-24T03:51:19;2.25;;;0.80;;
66429;SDS011;53242;51.694;10.006;2023-04-24T03:53:44;2.88;;;0.95;;
66429;SDS011;53242;51.694;10.006;2023-04-24T03:56:10;2.53;;;1.00;;
66429;SDS011;53242;51.694;10.006;2023-04-24T03:58:33;1.08;;;0.77;;
66429;SDS011;53242;51.694;10.006;2023-04-24T04:00:56;1.25;;;0.80;;
66429;SDS011;53242;51.694;10.006;2023-04-24T04:03:37;3.20;;;0.80;;
66429;SDS011;53242;51.694;10.006;2023-04-24T04:06:00;2.17;;;0.90;;
66429;SDS011;53242;51.694;10.006;2023-04-24T04:08:23;5.30;;;1.23;;
66429;SDS011;53242;51.694;10.006;2023-04-24T04:10:45;3.15;;;1.05;;
66429;SDS011;53242;51.694;10.006;2023-04-24T04:13:08;2.45;;;1.00;;
66429;SDS011;53242;51.694;10.006;2023-04-24T04:15:31;2.17;;;1.17;;
66429;SDS011;53242;51.694;10.006;2023-04-24T04:17:53;2.65;;;0.90;;
66429;SDS011;53242;51.694;10.006;2023-04-24T04:20:16;2.47;;;1.10;;
66429;SDS011;53242;51.694;10.006;2023-04-24T04:22:39;2.63;;;1.13;;
66429;SDS011;53242;51.694;10.006;2023-04-24T04:25:04;2.97;;;0.90;;
66429;SDS011;53242;51.694;10.006;2023-04-24T04:27:27;1.60;;;1.10;;
66429;SDS011;53242;51.694;10.006;2023-04-24T04:29:58;3.15;;;0.90;;
66429;SDS011;53242;51.694;10.006;2023-04-24T04:32:24;2.88;;;1.20;;
66429;SDS011;53242;51.694;10.006;2023-04-24T04:34:47;2.72;;;1.00;;
66429;SDS011;53242;51.694;10.006;2023-04-24T04:37:11;2.17;;;1.10;;
66429;SDS011;53242;51.694;10.006;2023-04-24T04:39:46;2.75;;;1.10;;
66429;SDS011;53242;51.694;10.006;2023-04-24T04:42:14;2.05;;;1.00;;
66429;SDS011;53242;51.694;10.006;2023-04-24T04:44:39;3.22;;;1.00;;
66429;SDS011;53242;51.694;10.006;2023-04-24T04:47:03;1.65;;;1.20;;
66429;SDS011;53242;51.694;10.006;2023-04-24T04:49:28;2.78;;;1.27;;
66429;SDS011;53242;51.694;10.006;2023-04-24T04:51:51;1.98;;;1.13;;
66429;SDS011;53242;51.694;10.006;2023-04-24T04:54:14;1.42;;;0.90;;
66429;SDS011;53242;51.694;10.006;2023-04-24T04:56:37;3.10;;;1.30;;
66429;SDS011;53242;51.694;10.006;2023-04-24T04:59:00;2.70;;;1.20;;
66429;SDS011;53242;51.694;10.006;2023-04-24T05:01:23;3.60;;;1.30;;
66429;SDS011;53242;51.694;10.006;2023-04-24T05:03:46;3.15;;;1.30;;
66429;SDS011;53242;51.694;10.006;2023-04-24T05:06:11;3.10;;;1.00;;
66429;SDS011;53242;51.694;10.006;2023-04-24T05:08:35;2.95;;;1.25;;
66429;SDS011;53242;51.694;10.006;2023-04-24T05:10:58;3.60;;;1.00;;
66429;SDS011;53242;51.694;10.006;2023-04-24T05:13:23;1.95;;;1.00;;
66429;SDS011;53242;51.694;10.006;2023-04-24T05:15:46;4.70;;;1.20;;
66429;SDS011;53242;51.694;10.006;2023-04-24T05:18:09;3.05;;;1.17;;
66429;SDS011;53242;51.694;10.006;2023-04-24T05:20:32;2.75;;;1.15;;
66429;SDS011;53242;51.694;10.006;2023-04-24T05:22:55;5.88;;;1.52;;
66429;SDS011;53242;51.694;10.006;2023-04-24T05:25:18;1.90;;;0.93;;
66429;SDS011;53242;51.694;10.006;2023-04-24T05:27:48;2.08;;;1.00;;
66429;SDS011;53242;51.694;10.006;2023-04-24T05:30:12;1.85;;;0.93;;
66429;SDS011;53242;51.694;10.006;2023-04-24T05:32:35;2.00;;;0.90;;
66429;SDS011;53242;51.694;10.006;2023-04-24T05:34:57;3.35;;;1.30;;
66429;SDS011;53242;51.694;10.006;2023-04-24T05:37:21;2.50;;;1.00;;
66429;SDS011;53242;51.694;10.006;2023-04-24T05:39:43;2.63;;;0.80;;
66429;SDS011;53242;51.694;10.006;2023-04-24T05:42:06;2.40;;;0.93;;
66429;SDS011;53242;51.694;10.006;2023-04-24T05:44:28;2.45;;;1.00;;
66429;SDS011;53242;51.694;10.006;2023-04-24T05:46:51;2.55;;;0.82;;
66429;SDS011;53242;51.694;10.006;2023-04-24T05:49:14;1.13;;;0.65;;
66429;SDS011;53242;51.694;10.006;2023-04-24T05:51:36;2.15;;;1.13;;
66429;SDS011;53242;51.694;10.006;2023-04-24T05:53:59;2.97;;;0.90;;
66429;SDS011;53242;51.694;10.006;2023-04-24T05:56:22;2.05;;;1.02;;
66429;SDS011;53242;51.694;10.006;2023-04-24T05:58:46;3.15;;;1.02;;
66429;SDS011;53242;51.694;10.006;2023-04-24T06:01:08;2.40;;;0.80;;
66429;SDS011;53242;51.694;10.006;2023-04-24T06:03:31;1.58;;;0.93;;
66429;SDS011;53242;51.694;10.006;2023-04-24T06:05:54;1.58;;;1.08;;
66429;SDS011;53242;51.694;10.006;2023-04-24T06:08:18;3.45;;;1.10;;
66429;SDS011;53242;51.694;10.006;2023-04-24T06:10:42;2.35;;;1.00;;
66429;SDS011;53242;51.694;10.006;2023-04-24T06:13:05;3.45;;;1.20;;
66429;SDS011;53242;51.694;10.006;2023-04-24T06:15:31;1.80;;;1.08;;
66429;SDS011;53242;51.694;10.006;2023-04-24T06:18:01;1.92;;;1.27;;
66429;SDS011;53242;51.694;10.006;2023-04-24T06:20:23;1.55;;;1.02;;
66429;SDS011;53242;51.694;10.006;2023-04-24T06:22:46;2.45;;;1.00;;
66429;SDS011;53242;51.694;10.006;2023-04-24T06:25:08;3.28;;;1.10;;
66429;SDS011;53242;51.694;10.006;2023-04-24T06:27:31;0.63;;;0.50;;
66429;SDS011;53242;51.694;10.006;2023-04-24T06:29:53;1.23;;;0.80;;
66429;SDS011;53242;51.694;10.006;2023-04-24T06:32:17;2.97;;;1.05;;
66429;SDS011;53242;51.694;10.006;2023-04-24T06:34:39;2.05;;;1.00;;
66429;SDS011;53242;51.694;10.006;2023-04-24T06:37:02;4.13;;;0.98;;
66429;SDS011;53242;51.694;10.006;2023-04-24T06:39:24;1.88;;;0.98;;
66429;SDS011;53242;51.694;10.006;2023-04-24T06:41:46;1.80;;;0.80;;
66429;SDS011;53242;51.694;10.006;2023-04-24T06:44:15;2.15;;;1.13;;
66429;SDS011;53242;51.694;10.006;2023-04-24T06:46:38;2.50;;;1.40;;
66429;SDS011;53242;51.694;10.006;2023-04-24T06:49:01;1.67;;;1.05;;
66429;SDS011;53242;51.694;10.006;2023-04-24T06:51:23;2.63;;;1.30;;
66429;SDS011;53242;51.694;10.006;2023-04-24T06:53:46;1.95;;;1.10;;
66429;SDS011;53242;51.694;10.006;2023-04-24T06:56:08;2.72;;;1.20;;
66429;SDS011;53242;51.694;10.006;2023-04-24T06:58:31;4.03;;;1.25;;
66429;SDS011;53242;51.694;10.006;2023-04-24T07:00:53;2.75;;;1.40;;
66429;SDS011;53242;51.694;10.006;2023-04-24T07:03:16;2.22;;;1.33;;
66429;SDS011;53242;51.694;10.006;2023-04-24T07:05:38;3.65;;;1.50;;
66429;SDS011;53242;51.694;10.006;2023-04-24T07:08:01;2.00;;;1.15;;
66429;SDS011;53242;51.694;10.006;2023-04-24T07:10:24;2.50;;;1.23;;
66429;SDS011;53242;51.694;10.006;2023-04-24T07:12:47;2.70;;;1.20;;
66429;SDS011;53242;51.694;10.006;2023-04-24T07:15:10;3.25;;;1.17;;
66429;SDS011;53242;51.694;10.006;2023-04-24T07:17:32;3.13;;;1.50;;
66429;SDS011;53242;51.694;10.006;2023-04-24T07:19:55;3.55;;;1.67;;
66429;SDS011;53242;51.694;10.006;2023-04-24T07:22:17;3.53;;;1.48;;
66429;SDS011;53242;51.694;10.006;2023-04-24T07:24:40;3.40;;;1.50;;
66429;SDS011;53242;51.694;10.006;2023-04-24T07:27:02;3.05;;;1.40;;
66429;SDS011;53242;51.694;10.006;2023-04-24T07:29:26;3.17;;;1.50;;
66429;SDS011;53242;51.694;10.006;2023-04-24T07:31:48;2.78;;;1.17;;
66429;SDS011;53242;51.694;10.006;2023-04-24T07:34:11;3.35;;;1.33;;
66429;SDS011;53242;51.694;10.006;2023-04-24T07:36:33;2.92;;;1.30;;
66429;SDS011;53242;51.694;10.006;2023-04-24T07:38:56;3.08;;;1.45;;
66429;SDS011;53242;51.694;10.006;2023-04-24T07:41:18;5.38;;;1.50;;
66429;SDS011;53242;51.694;10.006;2023-04-24T07:43:42;3.95;;;1.35;;
66429;SDS011;53242;51.694;10.006;2023-04-24T07:46:05;5.40;;;2.10;;
66429;SDS011;53242;51.694;10.006;2023-04-24T07:48:28;5.13;;;2.20;;
66429;SDS011;53242;51.694;10.006;2023-04-24T07:50:50;5.47;;;1.60;;
66429;SDS011;53242;51.694;10.006;2023-04-24T07:53:13;5.25;;;2.05;;
66429;SDS011;53242;51.694;10.006;2023-04-24T07:55:35;4.80;;;2.30;;
66429;SDS011;53242;51.694;10.006;2023-04-24T07:57:57;4.65;;;2.00;;
66429;SDS011;53242;51.694;10.006;2023-04-24T08:00:20;5.20;;;2.25;;
66429;SDS011;53242;51.694;10.006;2023-04-24T08:02:42;6.20;;;2.67;;
66429;SDS011;53242;51.694;10.006;2023-04-24T08:05:05;5.95;;;2.55;;
66429;SDS011;53242;51.694;10.006;2023-04-24T08:07:28;5.30;;;1.95;;
66429;SDS011;53242;51.694;10.006;2023-04-24T08:09:51;4.25;;;1.77;;
66429;SDS011;53242;51.694;10.006;2023-04-24T08:12:13;5.45;;;2.38;;
66429;SDS011;53242;51.694;10.006;2023-04-24T08:14:36;5.32;;;2.20;;
66429;SDS011;53242;51.694;10.006;2023-04-24T08:16:58;4.45;;;1.92;;
66429;SDS011;53242;51.694;10.006;2023-04-24T08:19:22;6.50;;;2.40;;
66429;SDS011;53242;51.694;10.006;2023-04-24T08:21:44;4.97;;;1.80;;
66429;SDS011;53242;51.694;10.006;2023-04-24T08:24:07;5.88;;;2.70;;
66429;SDS011;53242;51.694;10.006;2023-04-24T08:26:30;6.15;;;2.78;;
66429;SDS011;53242;51.694;10.006;2023-04-24T08:28:52;5.28;;;2.15;;
66429;SDS011;53242;51.694;10.006;2023-04-24T08:31:15;4.68;;;2.50;;
66429;SDS011;53242;51.694;10.006;2023-04-24T08:33:37;4.97;;;2.20;;
66429;SDS011;53242;51.694;10.006;2023-04-24T08:36:01;7.18;;;2.13;;
66429;SDS011;53242;51.694;10.006;2023-04-24T08:38:24;5.13;;;2.30;;
66429;SDS011;53242;51.694;10.006;2023-04-24T08:40:47;3.40;;;1.52;;
66429;SDS011;53242;51.694;10.006;2023-04-24T08:45:34;5.80;;;2.75;;
66429;SDS011;53242;51.694;10.006;2023-04-24T08:47:57;4.85;;;2.28;;
66429;SDS011;53242;51.694;10.006;2023-04-24T08:50:20;7.05;;;2.60;;
66429;SDS011;53242;51.694;10.006;2023-04-24T08:52:43;5.22;;;2.03;;
66429;SDS011;53242;51.694;10.006;2023-04-24T08:55:06;3.83;;;1.83;;
66429;SDS011;53242;51.694;10.006;2023-04-24T08:57:28;4.85;;;2.20;;
66429;SDS011;53242;51.694;10.006;2023-04-24T08:59:52;6.25;;;2.45;;
66429;SDS011;53242;51.694;10.006;2023-04-24T09:02:15;4.70;;;2.33;;
66429;SDS011;53242;51.694;10.006;2023-04-24T09:04:39;4.03;;;1.90;;
66429;SDS011;53242;51.694;10.006;2023-04-24T09:07:02;6.22;;;1.80;;
66429;SDS011;53242;51.694;10.006;2023-04-24T09:09:25;3.90;;;1.90;;
66429;SDS011;53242;51.694;10.006;2023-04-24T09:11:52;5.82;;;2.40;;
66429;SDS011;53242;51.694;10.006;2023-04-24T09:14:17;4.53;;;1.75;;
66429;SDS011;53242;51.694;10.006;2023-04-24T09:16:41;6.25;;;2.20;;
66429;SDS011;53242;51.694;10.006;2023-04-24T09:19:03;5.00;;;1.92;;
66429;SDS011;53242;51.694;10.006;2023-04-24T09:21:27;4.63;;;1.85;;
66429;SDS011;53242;51.694;10.006;2023-04-24T09:23:58;3.70;;;1.77;;
66429;SDS011;53242;51.694;10.006;2023-04-24T09:26:21;4.15;;;2.20;;
66429;SDS011;53242;51.694;10.006;2023-04-24T09:28:44;4.88;;;2.00;;
66429;SDS011;53242;51.694;10.006;2023-04-24T09:31:17;5.20;;;2.15;;
66429;SDS011;53242;51.694;10.006;2023-04-24T09:33:53;4.03;;;2.00;;
66429;SDS011;53242;51.694;10.006;2023-04-24T09:36:25;3.97;;;1.75;;
66429;SDS011;53242;51.694;10.006;2023-04-24T09:38:49;4.30;;;1.55;;
66429;SDS011;53242;51.694;10.006;2023-04-24T09:41:19;5.03;;;1.50;;
66429;SDS011;53242;51.694;10.006;2023-04-24T09:43:41;4.00;;;1.70;;
66429;SDS011;53242;51.694;10.006;2023-04-24T09:46:05;3.80;;;1.67;;
66429;SDS011;53242;51.694;10.006;2023-04-24T09:48:32;3.28;;;1.48;;
66429;SDS011;53242;51.694;10.006;2023-04-24T09:50:55;3.65;;;1.58;;
66429;SDS011;53242;51.694;10.006;2023-04-24T09:53:18;4.05;;;1.70;;
66429;SDS011;53242;51.694;10.006;2023-04-24T09:55:46;6.30;;;2.10;;
66429;SDS011;53242;51.694;10.006;2023-04-24T10:00:32;4.43;;;1.55;;
66429;SDS011;53242;51.694;10.006;2023-04-24T10:02:56;4.47;;;1.75;;
66429;SDS011;53242;51.694;10.006;2023-04-24T10:05:22;5.80;;;2.10;;
66429;SDS011;53242;51.694;10.006;2023-04-24T10:07:45;4.53;;;1.80;;
66429;SDS011;53242;51.694;10.006;2023-04-24T10:10:08;4.85;;;1.90;;
66429;SDS011;53242;51.694;10.006;2023-04-24T10:12:31;5.30;;;1.83;;
66429;SDS011;53242;51.694;10.006;2023-04-24T10:14:53;3.92;;;1.95;;
66429;SDS011;53242;51.694;10.006;2023-04-24T10:17:16;4.63;;;2.30;;
66429;SDS011;53242;51.694;10.006;2023-04-24T10:19:39;5.05;;;2.20;;
66429;SDS011;53242;51.694;10.006;2023-04-24T10:22:03;4.25;;;2.15;;
66429;SDS011;53242;51.694;10.006;2023-04-24T10:24:25;5.22;;;2.03;;
66429;SDS011;53242;51.694;10.006;2023-04-24T10:26:48;4.43;;;1.92;;
66429;SDS011;53242;51.694;10.006;2023-04-24T10:29:12;6.60;;;2.20;;
66429;SDS011;53242;51.694;10.006;2023-04-24T10:31:37;5.28;;;2.22;;
66429;SDS011;53242;51.694;10.006;2023-04-24T10:34:00;3.58;;;1.83;;
66429;SDS011;53242;51.694;10.006;2023-04-24T10:36:23;5.88;;;2.38;;
66429;SDS011;53242;51.694;10.006;2023-04-24T10:38:48;5.10;;;2.30;;
66429;SDS011;53242;51.694;10.006;2023-04-24T10:41:12;4.85;;;2.22;;
66429;SDS011;53242;51.694;10.006;2023-04-24T10:43:41;6.70;;;2.85;;
66429;SDS011;53242;51.694;10.006;2023-04-24T10:46:05;5.45;;;2.42;;
66429;SDS011;53242;51.694;10.006;2023-04-24T10:48:28;3.85;;;1.98;;
66429;SDS011;53242;51.694;10.006;2023-04-24T10:50:51;4.20;;;2.15;;
66429;SDS011;53242;51.694;10.006;2023-04-24T10:53:16;4.13;;;1.67;;
66429;SDS011;53242;51.694;10.006;2023-04-24T10:55:40;3.17;;;1.45;;
66429;SDS011;53242;51.694;10.006;2023-04-24T10:58:03;3.35;;;1.60;;
66429;SDS011;53242;51.694;10.006;2023-04-24T11:00:26;3.58;;;1.30;;
66429;SDS011;53242;51.694;10.006;2023-04-24T11:02:49;5.03;;;1.65;;
66429;SDS011;53242;51.694;10.006;2023-04-24T11:05:15;2.95;;;1.50;;
66429;SDS011;53242;51.694;10.006;2023-04-24T11:10:46;4.10;;;1.98;;
66429;SDS011;53242;51.694;10.006;2023-04-24T11:13:09;9.48;;;1.83;;
66429;SDS011;53242;51.694;10.006;2023-04-24T11:15:31;3.72;;;1.70;;
66429;SDS011;53242;51.694;10.006;2023-04-24T11:17:54;3.05;;;1.08;;
66429;SDS011;53242;51.694;10.006;2023-04-24T11:20:17;1.83;;;0.98;;
66429;SDS011;53242;51.694;10.006;2023-04-24T11:22:40;3.85;;;1.00;;
66429;SDS011;53242;51.694;10.006;2023-04-24T11:25:05;4.95;;;1.30;;
66429;SDS011;53242;51.694;10.006;2023-04-24T11:27:32;3.08;;;1.40;;
66429;SDS011;53242;51.694;10.006;2023-04-24T11:30:02;1.38;;;0.90;;
66429;SDS011;53242;51.694;10.006;2023-04-24T11:32:40;4.22;;;1.02;;
66429;SDS011;53242;51.694;10.006;2023-04-24T11:35:06;2.40;;;0.95;;
66429;SDS011;53242;51.694;10.006;2023-04-24T11:37:37;2.00;;;0.80;;
66429;SDS011;53242;51.694;10.006;2023-04-24T11:40:01;1.58;;;0.90;;
66429;SDS011;53242;51.694;10.006;2023-04-24T11:42:24;7.65;;;1.27;;
66429;SDS011;53242;51.694;10.006;2023-04-24T11:44:47;2.25;;;0.68;;
66429;SDS011;53242;51.694;10.006;2023-04-24T11:47:09;1.67;;;0.60;;
66429;SDS011;53242;51.694;10.006;2023-04-24T11:49:32;1.75;;;0.80;;
66429;SDS011;53242;51.694;10.006;2023-04-24T11:51:55;2.90;;;0.90;;
66429;SDS011;53242;51.694;10.006;2023-04-24T11:54:18;3.55;;;0.90;;
66429;SDS011;53242;51.694;10.006;2023-04-24T11:56:44;2.33;;;1.30;;
66429;SDS011;53242;51.694;10.006;2023-04-24T11:59:08;2.17;;;1.10;;
66429;SDS011;53242;51.694;10.006;2023-04-24T12:01:41;3.70;;;1.40;;
66429;SDS011;53242;51.694;10.006;2023-04-24T12:04:04;2.72;;;1.23;;
66429;SDS011;53242;51.694;10.006;2023-04-24T12:06:27;4.38;;;1.17;;
66429;SDS011;53242;51.694;10.006;2023-04-24T12:08:49;3.22;;;1.48;;
66429;SDS011;53242;51.694;10.006;2023-04-24T12:11:15;2.85;;;0.90;;
66429;SDS011;53242;51.694;10.006;2023-04-24T12:13:39;1.88;;;0.88;;
66429;SDS011;53242;51.694;10.006;2023-04-24T12:16:02;1.92;;;1.00;;
66429;SDS011;53242;51.694;10.006;2023-04-24T12:18:26;5.60;;;1.42;;
66429;SDS011;53242;51.694;10.006;2023-04-24T12:20:48;1.95;;;1.13;;
66429;SDS011;53242;51.694;10.006;2023-04-24T12:23:11;2.72;;;1.00;;
66429;SDS011;53242;51.694;10.006;2023-04-24T12:25:34;2.53;;;0.93;;
66429;SDS011;53242;51.694;10.006;2023-04-24T12:30:26;1.45;;;0.70;;
66429;SDS011;53242;51.694;10.006;2023-04-24T12:32:52;1.25;;;0.60;;
66429;SDS011;53242;51.694;10.006;2023-04-24T12:35:20;0.50;;;0.50;;
66429;SDS011;53242;51.694;10.006;2023-04-24T12:37:46;0.40;;;0.40;;
66429;SDS011;53242;51.694;10.006;2023-04-24T12:40:09;0.20;;;0.17;;
66429;SDS011;53242;51.694;10.006;2023-04-24T12:42:33;0.10;;;0.10;;
66429;SDS011;53242;51.694;10.006;2023-04-24T12:44:57;0.28;;;0.28;;
66429;SDS011;53242;51.694;10.006;2023-04-24T12:47:21;0.60;;;0.20;;
66429;SDS011;53242;51.694;10.006;2023-04-24T12:49:44;0.52;;;0.40;;
66429;SDS011;53242;51.694;10.006;2023-04-24T12:52:06;0.63;;;0.40;;
66429;SDS011;53242;51.694;10.006;2023-04-24T12:54:32;0.45;;;0.40;;
66429;SDS011;53242;51.694;10.006;2023-04-24T12:56:54;0.30;;;0.20;;
66429;SDS011;53242;51.694;10.006;2023-04-24T12:59:17;0.30;;;0.30;;
66429;SDS011;53242;51.694;10.006;2023-04-24T13:01:40;0.30;;;0.22;;
66429;SDS011;53242;51.694;10.006;2023-04-24T13:04:03;1.63;;;0.50;;
66429;SDS011;53242;51.694;10.006;2023-04-24T13:06:25;0.43;;;0.22;;
66429;SDS011;53242;51.694;10.006;2023-04-24T13:08:48;0.20;;;0.17;;
66429;SDS011;53242;51.694;10.006;2023-04-24T13:11:10;0.40;;;0.22;;
66429;SDS011;53242;51.694;10.006;2023-04-24T13:13:33;0.30;;;0.30;;
66429;SDS011;53242;51.694;10.006;2023-04-24T13:15:55;0.50;;;0.20;;
66429;SDS011;53242;51.694;10.006;2023-04-24T13:18:17;0.30;;;0.30;;
66429;SDS011;53242;51.694;10.006;2023-04-24T13:20:40;0.35;;;0.30;;
66429;SDS011;53242;51.694;10.006;2023-04-24T13:23:03;0.20;;;0.20;;
66429;SDS011;53242;51.694;10.006;2023-04-24T13:25:25;0.65;;;0.52;;
66429;SDS011;53242;51.694;10.006;2023-04-24T13:27:48;0.30;;;0.20;;
66429;SDS011;53242;51.694;10.006;2023-04-24T13:30:11;0.50;;;0.45;;
66429;SDS011;53242;51.694;10.006;2023-04-24T13:32:33;0.30;;;0.30;;
66429;SDS011;53242;51.694;10.006;2023-04-24T13:34:57;0.30;;;0.30;;
66429;SDS011;53242;51.694;10.006;2023-04-24T13:37:19;0.40;;;0.40;;
66429;SDS011;53242;51.694;10.006;2023-04-24T13:39:42;0.40;;;0.40;;
66429;SDS011;53242;51.694;10.006;2023-04-24T13:42:04;0.60;;;0.50;;
66429;SDS011;53242;51.694;10.006;2023-04-24T13:44:27;0.45;;;0.30;;
66429;SDS011;53242;51.694;10.006;2023-04-24T13:46:50;0.45;;;0.45;;
66429;SDS011;53242;51.694;10.006;2023-04-24T13:49:16;2.08;;;0.65;;
66429;SDS011;53242;51.694;10.006;2023-04-24T13:51:38;0.52;;;0.43;;
66429;SDS011;53242;51.694;10.006;2023-04-24T13:54:01;0.77;;;0.40;;
66429;SDS011;53242;51.694;10.006;2023-04-24T13:56:24;0.20;;;0.20;;
66429;SDS011;53242;51.694;10.006;2023-04-24T13:58:46;0.80;;;0.60;;
66429;SDS011;53242;51.694;10.006;2023-04-24T14:01:09;1.75;;;0.80;;
66429;SDS011;53242;51.694;10.006;2023-04-24T14:03:32;1.23;;;0.80;;
66429;SDS011;53242;51.694;10.006;2023-04-24T14:05:55;2.08;;;0.75;;
66429;SDS011;53242;51.694;10.006;2023-04-24T14:08:18;0.98;;;0.50;;
66429;SDS011;53242;51.694;10.006;2023-04-24T14:10:40;3.55;;;0.60;;
66429;SDS011;53242;51.694;10.006;2023-04-24T14:13:02;0.50;;;0.47;;
66429;SDS011;53242;51.694;10.006;2023-04-24T14:15:25;0.75;;;0.50;;
66429;SDS011;53242;51.694;10.006;2023-04-24T14:17:47;2.83;;;1.10;;
66429;SDS011;53242;51.694;10.006;2023-04-24T14:20:11;2.58;;;0.80;;
66429;SDS011;53242;51.694;10.006;2023-04-24T14:22:34;0.98;;;0.50;;
66429;SDS011;53242;51.694;10.006;2023-04-24T14:24:57;1.30;;;0.55;;
66429;SDS011;53242;51.694;10.006;2023-04-24T14:27:19;2.17;;;0.60;;